createdAt,value
2017-12-30T00:01:36.909Z,2.09
2017-12-30T00:04:02.692Z,2.11
2017-12-30T00:06:28.462Z,2.09
2017-12-30T00:08:54.606Z,2.20
2017-12-30T00:11:20.400Z,2.20
2017-12-30T00:13:46.202Z,2.24
2017-12-30T00:16:12.369Z,2.12
2017-12-30T00:18:38.154Z,2.25
2017-12-30T00:21:03.942Z,2.21
2017-12-30T00:23:29.767Z,2.28
2017-12-30T00:25:55.564Z,2.31
2017-12-30T00:28:21.363Z,2.42
2017-12-30T00:30:47.183Z,2.48
2017-12-30T00:33:12.969Z,2.35
2017-12-30T00:35:38.753Z,2.33
2017-12-30T00:38:04.966Z,2.68
2017-12-30T00:40:30.745Z,2.64
2017-12-30T00:42:56.526Z,2.61
2017-12-30T00:45:22.326Z,2.66
2017-12-30T00:47:48.127Z,2.80
2017-12-30T00:50:13.919Z,2.81
2017-12-30T00:52:39.727Z,2.64
2017-12-30T00:55:05.505Z,2.66
2017-12-30T00:57:31.285Z,2.60
2017-12-30T00:59:57.070Z,2.54
2017-12-30T01:02:22.879Z,2.58
2017-12-30T01:04:48.700Z,2.66
2017-12-30T01:07:14.496Z,2.83
2017-12-30T01:09:40.279Z,2.80
2017-12-30T01:12:06.089Z,2.68
2017-12-30T01:14:31.878Z,2.60
2017-12-30T01:16:57.663Z,2.66
2017-12-30T01:19:23.479Z,2.87
2017-12-30T01:21:49.289Z,2.79
2017-12-30T01:24:15.076Z,2.58
2017-12-30T01:26:40.904Z,2.63
2017-12-30T01:29:06.699Z,2.91
2017-12-30T01:31:32.490Z,3.07
2017-12-30T01:33:58.317Z,2.83
2017-12-30T01:36:24.106Z,2.78
2017-12-30T01:38:49.899Z,2.96
2017-12-30T01:41:15.706Z,2.94
2017-12-30T01:43:41.489Z,2.83
2017-12-30T01:46:07.278Z,2.85
2017-12-30T01:48:33.128Z,2.77
2017-12-30T01:50:59.808Z,2.83
2017-12-30T01:53:25.594Z,2.78
2017-12-30T01:55:51.391Z,2.94
2017-12-30T01:58:17.179Z,2.90
2017-12-30T02:00:42.985Z,2.84
2017-12-30T02:03:08.767Z,2.88
2017-12-30T02:05:34.567Z,2.91
2017-12-30T02:08:03.563Z,2.81
2017-12-30T02:10:29.347Z,2.89
2017-12-30T02:12:55.133Z,2.85
2017-12-30T02:15:20.932Z,2.81
2017-12-30T02:17:46.701Z,2.78
2017-12-30T02:20:12.506Z,2.81
2017-12-30T02:22:38.303Z,2.89
2017-12-30T02:25:04.090Z,2.85
2017-12-30T02:27:29.874Z,2.84
2017-12-30T02:29:55.658Z,2.88
2017-12-30T02:32:21.446Z,2.87
2017-12-30T02:34:47.242Z,2.92
2017-12-30T02:37:13.030Z,2.96
2017-12-30T02:39:38.837Z,2.95
2017-12-30T02:42:04.655Z,3.05
2017-12-30T02:44:30.442Z,3.11
2017-12-30T02:46:56.284Z,3.11
2017-12-30T02:49:22.058Z,3.16
2017-12-30T02:51:47.909Z,3.16
2017-12-30T02:54:13.686Z,3.17
2017-12-30T02:56:39.468Z,3.32
2017-12-30T02:59:05.278Z,3.47
2017-12-30T03:01:31.047Z,3.49
2017-12-30T03:03:56.843Z,3.94
2017-12-30T03:06:22.679Z,3.54
2017-12-30T03:08:48.470Z,3.61
2017-12-30T03:11:14.242Z,4.55
2017-12-30T03:13:40.278Z,3.81
2017-12-30T03:16:06.066Z,3.86
2017-12-30T03:18:31.900Z,3.81
2017-12-30T03:20:57.718Z,3.74
2017-12-30T03:23:23.552Z,3.86
2017-12-30T03:25:49.394Z,3.99
2017-12-30T03:28:15.589Z,4.07
2017-12-30T03:30:41.375Z,4.08
2017-12-30T03:33:07.158Z,4.11
2017-12-30T03:35:33.268Z,4.15
2017-12-30T03:37:59.059Z,4.21
2017-12-30T03:40:24.862Z,4.28
2017-12-30T03:42:50.674Z,4.36
2017-12-30T03:45:16.454Z,4.36
2017-12-30T03:47:42.230Z,4.46
2017-12-30T03:50:08.884Z,4.47
2017-12-30T03:52:34.666Z,4.46
2017-12-30T03:55:00.519Z,4.48
2017-12-30T03:57:26.354Z,4.50
2017-12-30T03:59:52.138Z,4.58
2017-12-30T04:02:17.909Z,4.64
2017-12-30T04:04:43.702Z,4.69
2017-12-30T04:07:09.479Z,4.71
2017-12-30T04:09:35.297Z,4.76
2017-12-30T04:12:01.080Z,4.83
2017-12-30T04:14:26.863Z,4.79
2017-12-30T04:16:52.675Z,4.85
2017-12-30T04:19:18.464Z,4.89
2017-12-30T04:21:44.260Z,4.92
2017-12-30T04:24:10.071Z,4.91
2017-12-30T04:26:35.850Z,4.96
2017-12-30T04:29:01.643Z,5.02
2017-12-30T04:31:27.588Z,5.04
2017-12-30T04:33:53.370Z,5.07
2017-12-30T04:36:19.162Z,5.11
2017-12-30T04:38:44.949Z,5.16
2017-12-30T04:41:10.759Z,5.22
2017-12-30T04:43:36.539Z,5.21
2017-12-30T04:46:02.346Z,5.16
2017-12-30T04:48:28.126Z,5.18
2017-12-30T04:50:53.918Z,5.13
2017-12-30T04:53:19.712Z,5.18
2017-12-30T04:55:45.662Z,5.18
2017-12-30T04:58:11.438Z,5.19
2017-12-30T05:00:37.293Z,5.25
2017-12-30T05:03:03.074Z,5.26
2017-12-30T05:05:28.865Z,5.25
2017-12-30T05:07:54.710Z,5.21
2017-12-30T05:10:20.491Z,5.21
2017-12-30T05:12:46.284Z,5.29
2017-12-30T05:15:12.095Z,5.32
2017-12-30T05:17:37.880Z,5.34
2017-12-30T05:20:03.662Z,5.36
2017-12-30T05:22:29.454Z,5.33
2017-12-30T05:24:55.232Z,5.34
2017-12-30T05:27:21.026Z,5.31
2017-12-30T05:29:46.828Z,5.27
2017-12-30T05:32:12.836Z,5.30
2017-12-30T05:34:38.627Z,5.36
2017-12-30T05:37:04.454Z,5.33
2017-12-30T05:39:30.236Z,5.36
2017-12-30T05:41:56.034Z,5.34
2017-12-30T05:44:28.878Z,5.35
2017-12-30T05:46:54.664Z,5.37
2017-12-30T05:49:20.455Z,5.38
2017-12-30T05:51:46.248Z,5.42
2017-12-30T05:54:12.030Z,5.35
2017-12-30T05:56:37.845Z,5.39
2017-12-30T05:59:03.626Z,5.41
2017-12-30T06:01:29.419Z,5.40
2017-12-30T06:03:55.442Z,5.40
2017-12-30T06:06:21.227Z,5.36
2017-12-30T06:08:47.031Z,5.37
2017-12-30T06:11:12.820Z,5.39
2017-12-30T06:13:38.813Z,5.31
2017-12-30T06:16:04.598Z,5.29
2017-12-30T06:18:30.387Z,5.34
2017-12-30T06:20:56.241Z,5.31
2017-12-30T06:23:22.025Z,5.35
2017-12-30T06:25:47.814Z,5.33
2017-12-30T06:28:13.586Z,5.36
2017-12-30T06:30:39.357Z,5.34
2017-12-30T06:33:05.463Z,5.33
2017-12-30T06:35:31.250Z,5.38
2017-12-30T06:37:57.042Z,5.35
2017-12-30T06:40:22.829Z,5.27
2017-12-30T06:42:48.606Z,5.33
2017-12-30T06:45:14.413Z,5.29
2017-12-30T06:47:40.218Z,5.31
2017-12-30T06:50:06.009Z,5.33
2017-12-30T06:52:31.804Z,5.34
2017-12-30T06:54:57.613Z,5.37
2017-12-30T06:57:23.412Z,5.37
2017-12-30T06:59:49.197Z,5.34
2017-12-30T07:02:15.011Z,5.40
2017-12-30T07:04:40.786Z,5.37
2017-12-30T07:07:06.575Z,5.33
2017-12-30T07:09:32.356Z,5.41
2017-12-30T07:11:58.456Z,5.35
2017-12-30T07:14:24.243Z,5.31
2017-12-30T07:16:50.045Z,5.34
2017-12-30T07:19:15.845Z,5.33
2017-12-30T07:21:41.640Z,5.34
2017-12-30T07:24:07.420Z,5.33
2017-12-30T07:26:33.234Z,5.36
2017-12-30T07:28:59.010Z,5.35
2017-12-30T07:31:24.798Z,5.28
2017-12-30T07:33:50.768Z,5.37
2017-12-30T07:36:16.506Z,5.32
2017-12-30T07:38:42.292Z,5.38
2017-12-30T07:41:08.086Z,5.41
2017-12-30T07:43:40.728Z,5.38
2017-12-30T07:46:06.530Z,5.37
2017-12-30T07:48:32.314Z,5.33
2017-12-30T07:50:58.709Z,5.34
2017-12-30T07:53:24.517Z,5.32
2017-12-30T07:55:50.296Z,5.40
2017-12-30T07:58:16.109Z,5.35
2017-12-30T08:00:41.962Z,5.33
2017-12-30T08:03:07.766Z,5.36
2017-12-30T08:05:33.550Z,5.35
2017-12-30T08:07:59.351Z,5.38
2017-12-30T08:10:25.147Z,5.33
2017-12-30T08:12:50.962Z,5.36
2017-12-30T08:15:16.739Z,5.33
2017-12-30T08:17:42.921Z,5.35
2017-12-30T08:20:08.707Z,5.32
2017-12-30T08:22:34.492Z,5.26
2017-12-30T08:25:00.271Z,5.31
2017-12-30T08:27:26.411Z,5.29
2017-12-30T08:29:52.271Z,5.33
2017-12-30T08:32:18.065Z,5.27
2017-12-30T08:34:43.862Z,5.28
2017-12-30T08:37:09.643Z,5.27
2017-12-30T08:39:35.436Z,5.29
2017-12-30T08:42:01.243Z,5.19
2017-12-30T08:44:27.022Z,5.31
2017-12-30T08:46:59.821Z,5.34
2017-12-30T08:49:25.627Z,5.35
2017-12-30T08:51:51.455Z,5.33
2017-12-30T08:54:17.238Z,5.28
2017-12-30T08:56:43.015Z,5.31
2017-12-30T08:59:08.814Z,5.31
2017-12-30T09:01:35.015Z,5.22
2017-12-30T09:04:00.835Z,5.22
2017-12-30T09:06:26.602Z,5.19
2017-12-30T09:08:52.391Z,5.25
2017-12-30T09:11:18.186Z,5.30
2017-12-30T09:13:43.982Z,5.24
2017-12-30T09:16:09.771Z,5.20
2017-12-30T09:18:35.578Z,5.23
2017-12-30T09:21:01.364Z,5.23
2017-12-30T09:23:27.147Z,5.17
2017-12-30T09:25:52.946Z,5.21
2017-12-30T09:28:18.731Z,5.26
2017-12-30T09:30:44.503Z,5.29
2017-12-30T09:33:10.498Z,5.24
2017-12-30T09:35:36.294Z,5.35
2017-12-30T09:38:02.083Z,5.31
2017-12-30T09:40:27.891Z,5.24
2017-12-30T09:42:53.674Z,5.28
2017-12-30T09:45:19.454Z,5.21
2017-12-30T09:47:45.250Z,5.32
2017-12-30T09:50:11.023Z,5.21
2017-12-30T09:52:36.795Z,5.16
2017-12-30T09:55:02.831Z,5.12
2017-12-30T09:57:28.615Z,5.20
2017-12-30T09:59:54.396Z,5.17
2017-12-30T10:02:20.678Z,5.18
2017-12-30T10:04:46.455Z,5.18
2017-12-30T10:07:12.235Z,5.17
2017-12-30T10:09:38.047Z,5.14
2017-12-30T10:12:03.827Z,5.08
2017-12-30T10:14:29.607Z,5.09
2017-12-30T10:16:55.403Z,5.26
2017-12-30T10:19:21.174Z,5.18
2017-12-30T10:21:46.978Z,5.16
2017-12-30T10:24:12.763Z,5.04
2017-12-30T10:26:38.551Z,5.04
2017-12-30T10:29:04.346Z,5.06
2017-12-30T10:31:30.147Z,5.01
2017-12-30T10:33:55.940Z,5.12
2017-12-30T10:36:21.760Z,5.07
2017-12-30T10:38:47.539Z,5.06
2017-12-30T10:41:13.323Z,5.01
2017-12-30T10:43:39.418Z,5.03
2017-12-30T10:46:05.204Z,4.92
2017-12-30T10:48:30.991Z,4.84
2017-12-30T10:50:57.260Z,4.86
2017-12-30T10:53:23.043Z,4.91
2017-12-30T10:55:48.831Z,4.94
2017-12-30T10:58:14.621Z,4.71
2017-12-30T11:00:46.411Z,4.76
2017-12-30T11:03:12.200Z,4.79
2017-12-30T11:05:38.030Z,4.73
2017-12-30T11:08:03.823Z,4.69
2017-12-30T11:10:29.597Z,4.73
2017-12-30T11:12:55.384Z,4.67
2017-12-30T11:15:21.174Z,4.67
2017-12-30T11:17:46.954Z,4.70
2017-12-30T11:20:12.783Z,4.60
2017-12-30T11:22:38.567Z,4.43
2017-12-30T11:25:04.359Z,4.38
2017-12-30T11:27:30.986Z,4.37
2017-12-30T11:29:56.784Z,4.25
2017-12-30T11:32:22.568Z,4.10
2017-12-30T11:34:48.553Z,4.18
2017-12-30T11:37:14.331Z,4.09
2017-12-30T11:39:40.139Z,4.14
2017-12-30T11:42:05.931Z,4.08
2017-12-30T11:44:31.718Z,3.92
2017-12-30T11:46:57.494Z,3.93
2017-12-30T11:49:23.308Z,3.92
2017-12-30T11:51:49.115Z,3.86
2017-12-30T11:54:14.895Z,3.95
2017-12-30T11:56:40.788Z,3.73
2017-12-30T11:59:06.608Z,3.76
2017-12-30T12:01:32.407Z,3.83
2017-12-30T12:03:58.201Z,3.80
2017-12-30T12:06:24.140Z,3.74
2017-12-30T12:08:49.959Z,3.86
2017-12-30T12:11:15.783Z,4.10
2017-12-30T12:13:41.571Z,4.19
2017-12-30T12:16:07.382Z,3.80
2017-12-30T12:18:33.178Z,3.99
2017-12-30T12:21:00.248Z,4.30
2017-12-30T12:23:26.038Z,4.16
2017-12-30T12:25:51.816Z,4.22
2017-12-30T12:28:17.629Z,4.37
2017-12-30T12:30:43.450Z,4.78
2017-12-30T12:33:09.250Z,4.61
2017-12-30T12:35:35.050Z,4.22
2017-12-30T12:38:00.844Z,4.52
2017-12-30T12:40:26.627Z,4.71
2017-12-30T12:42:52.426Z,4.43
2017-12-30T12:45:18.227Z,4.59
2017-12-30T12:47:44.061Z,4.21
2017-12-30T12:50:09.858Z,4.76
2017-12-30T12:52:35.640Z,4.18
2017-12-30T12:55:01.432Z,4.38
2017-12-30T12:57:27.326Z,4.40
2017-12-30T12:59:53.115Z,4.29
2017-12-30T13:02:18.910Z,4.28
2017-12-30T13:04:44.710Z,4.45
2017-12-30T13:07:10.500Z,4.24
2017-12-30T13:09:36.410Z,4.65
2017-12-30T13:12:02.227Z,4.59
2017-12-30T13:14:28.002Z,4.29
2017-12-30T13:16:54.015Z,4.09
2017-12-30T13:19:19.814Z,4.13
2017-12-30T13:21:45.599Z,4.29
2017-12-30T13:24:11.395Z,4.29
2017-12-30T13:26:37.385Z,4.10
2017-12-30T13:29:03.158Z,4.16
2017-12-30T13:31:28.954Z,4.17
2017-12-30T13:33:54.864Z,4.27
2017-12-30T13:36:20.907Z,4.12
2017-12-30T13:38:46.711Z,4.06
2017-12-30T13:41:12.522Z,4.09
2017-12-30T13:43:38.460Z,3.82
2017-12-30T13:46:04.292Z,3.94
2017-12-30T13:48:30.134Z,4.00
2017-12-30T13:50:55.936Z,4.10
2017-12-30T13:53:21.726Z,4.14
2017-12-30T13:55:48.571Z,4.01
2017-12-30T13:58:14.370Z,4.21
2017-12-30T14:00:40.155Z,4.34
2017-12-30T14:03:05.947Z,4.03
2017-12-30T14:05:32.658Z,3.97
2017-12-30T14:07:58.478Z,3.71
2017-12-30T14:10:24.271Z,3.86
2017-12-30T14:12:50.095Z,4.14
2017-12-30T14:15:15.875Z,3.97
2017-12-30T14:17:41.655Z,3.91
2017-12-30T14:20:07.448Z,3.94
2017-12-30T14:22:33.226Z,3.90
2017-12-30T14:24:59.035Z,3.89
2017-12-30T14:27:24.837Z,3.93
2017-12-30T14:29:50.618Z,4.04
2017-12-30T14:32:16.417Z,4.27
2017-12-30T14:34:42.373Z,4.22
2017-12-30T14:37:08.163Z,3.90
2017-12-30T14:39:33.955Z,4.05
2017-12-30T14:41:59.757Z,4.01
2017-12-30T14:44:25.541Z,3.96
2017-12-30T14:46:51.322Z,3.89
2017-12-30T14:49:17.590Z,4.06
2017-12-30T14:51:43.433Z,4.18
2017-12-30T14:54:09.263Z,4.18
2017-12-30T14:56:35.011Z,4.12
2017-12-30T14:59:00.794Z,4.14
2017-12-30T15:01:26.773Z,4.13
2017-12-30T15:03:52.664Z,3.99
2017-12-30T15:06:18.503Z,4.11
2017-12-30T15:08:44.862Z,4.39
2017-12-30T15:11:10.979Z,4.22
2017-12-30T15:13:36.810Z,4.24
2017-12-30T15:16:02.614Z,4.29
2017-12-30T15:18:28.399Z,4.33
2017-12-30T15:20:54.200Z,4.61
2017-12-30T15:23:20.000Z,4.56
2017-12-30T15:25:45.803Z,4.45
2017-12-30T15:28:11.587Z,4.45
2017-12-30T15:30:37.392Z,4.68
2017-12-30T15:33:03.191Z,4.47
2017-12-30T15:35:28.978Z,4.59
2017-12-30T15:37:55.080Z,4.75
2017-12-30T15:40:21.113Z,4.65
2017-12-30T15:42:46.894Z,4.70
2017-12-30T15:45:12.715Z,4.67
2017-12-30T15:47:38.622Z,4.71
2017-12-30T15:50:04.482Z,4.70
2017-12-30T15:52:30.374Z,4.63
2017-12-30T15:54:56.254Z,4.73
2017-12-30T15:57:22.031Z,4.80
2017-12-30T15:59:47.821Z,4.80
2017-12-30T16:02:13.806Z,4.89
2017-12-30T16:04:39.583Z,5.07
2017-12-30T16:07:06.183Z,5.07
2017-12-30T16:09:32.242Z,5.02
2017-12-30T16:11:58.040Z,5.05
2017-12-30T16:14:23.828Z,5.06
2017-12-30T16:16:49.987Z,5.56
2017-12-30T16:19:15.903Z,5.34
2017-12-30T16:21:41.684Z,5.41
2017-12-30T16:24:07.495Z,5.52
2017-12-30T16:26:33.288Z,5.74
2017-12-30T16:28:59.074Z,5.84
2017-12-30T16:31:24.864Z,5.93
2017-12-30T16:33:51.050Z,6.08
2017-12-30T16:36:16.829Z,6.17
2017-12-30T16:38:42.631Z,6.28
2017-12-30T16:41:08.814Z,6.46
2017-12-30T16:43:34.623Z,6.69
2017-12-30T16:46:00.420Z,6.71
2017-12-30T16:48:26.616Z,6.87
2017-12-30T16:50:52.419Z,7.10
2017-12-30T16:53:18.262Z,7.10
2017-12-30T16:55:44.068Z,7.23
2017-12-30T16:58:10.347Z,7.24
2017-12-30T17:00:36.205Z,7.30
2017-12-30T17:03:02.008Z,7.33
2017-12-30T17:05:27.831Z,7.34
2017-12-30T17:07:53.669Z,7.37
2017-12-30T17:10:19.455Z,7.41
2017-12-30T17:12:45.271Z,7.41
2017-12-30T17:15:11.056Z,7.49
